Time,TemperatureF,DewpointF,PressureIn,WindDirection,WindDirectionDegrees,WindSpeedMPH,WindSpeedGustMPH,Humidity,HourlyPrecipIn,Conditions,Clouds,dailyrainin,SoftwareType,DateUTC
2013-03-29 00:02:00,42.9,34.0,29.95,NW,309,0.0,-999.0,71,-99.99,,,0.00,weatherlink.com 1.10,2013-03-29 04:02:00,
2013-03-29 00:17:00,42.7,34.0,29.96,NW,310,0.0,-999.0,71,-99.99,,,0.00,weatherlink.com 1.10,2013-03-29 04:17:00,
2013-03-29 00:32:00,42.4,34.0,29.96,NW,310,0.0,-999.0,72,-99.99,,,0.00,weatherlink.com 1.10,2013-03-29 04:32:00,
2013-03-29 00:47:00,42.0,34.0,29.97,NW,313,0.0,-999.0,72,-99.99,,,0.00,weatherlink.com 1.10,2013-03-29 04:47:00,
2013-03-29 01:02:00,41.6,34.0,29.96,NW,313,0.0,-999.0,73,-99.99,,,0.00,weatherlink.com 1.10,2013-03-29 05:02:00,
2013-03-29 01:17:00,41.2,33.0,29.96,NW,313,0.0,-999.0,73,-99.99,,,0.00,weatherlink.com 1.10,2013-03-29 05:17:00,
2013-03-29 01:32:00,41.0,33.0,29.96,NW,319,0.0,-999.0,73,-99.99,,,0.00,weatherlink.com 1.10,2013-03-29 05:32:00,
2013-03-29 01:47:00,40.9,33.0,29.96,NW,320,0.0,-999.0,73,-99.99,,,0.00,weatherlink.com 1.10,2013-03-29 05:47:00,
2013-03-29 02:02:00,40.6,33.0,29.96,NW,321,0.0,-999.0,74,-99.99,,,0.00,weatherlink.com 1.10,2013-03-29 06:02:00,
2013-03-29 02:17:00,40.5,33.0,29.96,NW,321,0.0,-999.0,74,-99.99,,,0.00,weatherlink.com 1.10,2013-03-29 06:17:00,
2013-03-29 02:32:00,40.7,33.0,29.96,WNW,295,1.0,-999.0,73,-99.99,,,0.00,weatherlink.com 1.10,2013-03-29 06:32:00,
2013-03-29 02:47:00,40.8,32.0,29.96,NNW,327,0.0,-999.0,72,-99.99,,,0.00,weatherlink.com 1.10,2013-03-29 06:47:00,
2013-03-29 03:02:00,40.7,33.0,29.96,NNW,328,0.0,-999.0,73,-99.99,,,0.00,weatherlink.com 1.10,2013-03-29 07:02:00,
2013-03-29 03:17:00,40.3,33.0,29.96,NNW,331,0.0,-999.0,74,-99.99,,,0.00,weatherlink.com 1.10,2013-03-29 07:17:00,
2013-03-29 03:32:00,39.9,32.0,29.96,NNW,330,0.0,-999.0,74,-99.99,,,0.00,weatherlink.com 1.10,2013-03-29 07:32:00,
2013-03-29 03:47:00,39.2,32.0,29.96,NNW,330,0.0,-999.0,75,-99.99,,,0.00,weatherlink.com 1.10,2013-03-29 07:47:00,
2013-03-29 04:02:00,38.6,32.0,29.96,NNW,330,0.0,-999.0,77,-99.99,,,0.00,weatherlink.com 1.10,2013-03-29 08:02:00,
2013-03-29 04:17:00,38.1,32.0,29.96,NNW,329,0.0,-999.0,78,-99.99,,,0.00,weatherlink.com 1.10,2013-03-29 08:17:00,
2013-03-29 04:32:00,38.3,32.0,29.95,NW,326,0.0,-999.0,78,-99.99,,,0.00,weatherlink.com 1.10,2013-03-29 08:32:00,
2013-03-29 04:47:00,37.9,32.0,29.95,NW,326,0.0,-999.0,78,-99.99,,,0.00,weatherlink.com 1.10,2013-03-29 08:47:00,
2013-03-29 05:02:00,37.3,32.0,29.96,NW,326,0.0,-999.0,80,-99.99,,,0.00,weatherlink.com 1.10,2013-03-29 09:02:00,
2013-03-29 05:17:00,37.0,32.0,29.96,NW,326,0.0,-999.0,81,-99.99,,,0.00,weatherlink.com 1.10,2013-03-29 09:17:00,
2013-03-29 05:32:00,37.0,31.0,29.96,NW,326,0.0,-999.0,80,-99.99,,,0.00,weatherlink.com 1.10,2013-03-29 09:32:00,
2013-03-29 05:47:00,36.4,31.0,29.96,NW,326,0.0,-999.0,82,-99.99,,,0.00,weatherlink.com 1.10,2013-03-29 09:47:00,
2013-03-29 06:02:00,36.2,31.0,29.96,NW,326,0.0,-999.0,82,-99.99,,,0.00,weatherlink.com 1.10,2013-03-29 10:02:00,
2013-03-29 06:17:00,35.9,31.0,29.96,NW,326,0.0,-999.0,83,-99.99,,,0.00,weatherlink.com 1.10,2013-03-29 10:17:00,
2013-03-29 06:32:00,35.3,31.0,29.97,NW,326,0.0,-999.0,83,-99.99,,,0.00,weatherlink.com 1.10,2013-03-29 10:32:00,
2013-03-29 07:02:00,35.3,31.0,29.97,NW,326,0.0,-999.0,85,-99.99,,,0.00,weatherlink.com 1.10,2013-03-29 11:02:00,
2013-03-29 07:17:00,36.6,33.0,29.97,NW,326,0.0,-999.0,85,-99.99,,,0.00,weatherlink.com 1.10,2013-03-29 11:17:00,
2013-03-29 07:32:00,39.2,34.0,29.98,WNW,299,0.0,-999.0,80,-99.99,,,0.00,weatherlink.com 1.10,2013-03-29 11:32:00,
2013-03-29 07:47:00,41.3,34.0,29.98,NNW,330,0.0,-999.0,75,-99.99,,,0.00,weatherlink.com 1.10,2013-03-29 11:47:00,
2013-03-29 08:02:00,42.4,34.0,29.98,NNW,328,0.0,-999.0,73,-99.99,,,0.00,weatherlink.com 1.10,2013-03-29 12:02:00,
2013-03-29 08:17:00,43.4,35.0,29.98,WNW,293,0.0,-999.0,71,-99.99,,,0.00,weatherlink.com 1.10,2013-03-29 12:17:00,
2013-03-29 08:32:00,44.2,35.0,29.98,NW,313,4.0,-999.0,69,-99.99,,,0.00,weatherlink.com 1.10,2013-03-29 12:32:00,
2013-03-29 08:47:00,45.2,35.0,29.97,NNW,340,3.0,-999.0,68,-99.99,,,0.00,weatherlink.com 1.10,2013-03-29 12:47:00,
2013-03-29 09:02:00,46.3,35.0,29.98,WNW,286,1.0,-999.0,66,-99.99,,,0.00,weatherlink.com 1.10,2013-03-29 13:02:00,
2013-03-29 09:17:00,47.6,36.0,29.98,North,9,11.0,-999.0,64,-99.99,,,0.00,weatherlink.com 1.10,2013-03-29 13:17:00,
2013-03-29 09:47:00,48.2,36.0,29.98,NNW,346,3.0,-999.0,63,-99.99,,,0.00,weatherlink.com 1.10,2013-03-29 13:47:00,
2013-03-29 10:02:00,48.7,36.0,29.98,NNW,348,6.0,-999.0,62,-99.99,,,0.00,weatherlink.com 1.10,2013-03-29 14:02:00,
2013-03-29 10:17:00,48.7,36.0,29.98,NW,323,1.0,-999.0,61,-99.99,,,0.00,weatherlink.com 1.10,2013-03-29 14:17:00,
2013-03-29 10:32:00,48.8,36.0,29.98,NW,304,1.0,-999.0,62,-99.99,,,0.00,weatherlink.com 1.10,2013-03-29 14:32:00,
2013-03-29 10:47:00,49.9,36.0,29.98,NNE,28,3.0,-999.0,60,-99.99,,,0.00,weatherlink.com 1.10,2013-03-29 14:47:00,
2013-03-29 11:02:00,50.1,37.0,29.98,North,5,0.0,-999.0,60,-99.99,,,0.00,weatherlink.com 1.10,2013-03-29 15:02:00,
2013-03-29 11:17:00,51.2,37.0,29.98,North,351,1.0,-999.0,58,-99.99,,,0.00,weatherlink.com 1.10,2013-03-29 15:17:00,
2013-03-29 11:33:00,51.7,36.0,29.98,North,355,4.0,-999.0,56,-99.99,,,0.00,weatherlink.com 1.10,2013-03-29 15:33:00,
2013-03-29 11:47:00,51.8,36.0,29.98,NNW,347,2.0,-999.0,56,-99.99,,,0.00,weatherlink.com 1.10,2013-03-29 15:47:00,
2013-03-29 12:02:00,52.1,36.0,29.98,NW,325,2.0,-999.0,54,-99.99,,,0.00,weatherlink.com 1.10,2013-03-29 16:02:00,
2013-03-29 12:17:00,52.7,36.0,29.97,North,350,0.0,-999.0,53,-99.99,,,0.00,weatherlink.com 1.10,2013-03-29 16:17:00,
2013-03-29 12:32:00,53.2,35.0,29.97,WNW,290,3.0,-999.0,50,-99.99,,,0.00,weatherlink.com 1.10,2013-03-29 16:32:00,
2013-03-29 12:47:00,53.7,36.0,29.96,NNW,344,3.0,-999.0,51,-99.99,,,0.00,weatherlink.com 1.10,2013-03-29 16:47:00,
2013-03-29 13:02:00,53.8,35.0,29.96,NW,312,0.0,-999.0,49,-99.99,,,0.00,weatherlink.com 1.10,2013-03-29 17:02:00,
2013-03-29 13:17:00,55.5,36.0,29.95,NW,304,0.0,-999.0,48,-99.99,,,0.00,weatherlink.com 1.10,2013-03-29 17:17:00,
2013-03-29 13:32:00,58.1,35.0,29.94,South,184,2.0,-999.0,42,-99.99,,,0.00,weatherlink.com 1.10,2013-03-29 17:32:00,
2013-03-29 13:47:00,56.9,33.0,29.93,WSW,249,0.0,-999.0,40,-99.99,,,0.00,weatherlink.com 1.10,2013-03-29 17:47:00,
2013-03-29 14:02:00,56.8,33.0,29.93,North,355,1.0,-999.0,40,-99.99,,,0.00,weatherlink.com 1.10,2013-03-29 18:02:00,
2013-03-29 14:17:00,56.3,32.0,29.93,NNW,347,2.0,-999.0,40,-99.99,,,0.00,weatherlink.com 1.10,2013-03-29 18:17:00,
2013-03-29 14:32:00,56.4,32.0,29.92,SSW,192,2.0,-999.0,40,-99.99,,,0.00,weatherlink.com 1.10,2013-03-29 18:32:00,
2013-03-29 14:47:00,55.9,35.0,29.92,SSW,198,0.0,-999.0,45,-99.99,,,0.00,weatherlink.com 1.10,2013-03-29 18:47:00,
2013-03-29 15:02:00,57.7,33.0,29.92,West,276,2.0,-999.0,39,-99.99,,,0.00,weatherlink.com 1.10,2013-03-29 19:02:00,
2013-03-29 15:17:00,54.9,34.0,29.92,NW,320,5.0,-999.0,45,-99.99,,,0.00,weatherlink.com 1.10,2013-03-29 19:17:00,
2013-03-29 15:32:00,54.5,34.0,29.91,NNW,329,0.0,-999.0,47,-99.99,,,0.00,weatherlink.com 1.10,2013-03-29 19:32:00,
2013-03-29 15:47:00,55.9,33.0,29.91,NW,315,4.0,-999.0,43,-99.99,,,0.00,weatherlink.com 1.10,2013-03-29 19:47:00,
2013-03-29 16:02:00,57.4,32.0,29.91,NW,309,1.0,-999.0,38,-99.99,,,0.00,weatherlink.com 1.10,2013-03-29 20:02:00,
2013-03-29 16:17:00,56.4,32.0,29.91,SSW,195,1.0,-999.0,39,-99.99,,,0.00,weatherlink.com 1.10,2013-03-29 20:17:00,
2013-03-29 16:32:00,56.0,30.0,29.91,North,355,6.0,-999.0,37,-99.99,,,0.00,weatherlink.com 1.10,2013-03-29 20:32:00,
2013-03-29 16:47:00,55.5,30.0,29.91,NNW,340,0.0,-999.0,38,-99.99,,,0.00,weatherlink.com 1.10,2013-03-29 20:47:00,
2013-03-29 17:02:00,55.3,36.0,29.91,ESE,120,2.0,-999.0,48,-99.99,,,0.00,weatherlink.com 1.10,2013-03-29 21:02:00,
2013-03-29 17:17:00,52.6,36.0,29.93,WNW,282,4.0,-999.0,53,-99.99,,,0.00,weatherlink.com 1.10,2013-03-29 21:17:00,
2013-03-29 17:32:00,50.7,38.0,29.93,WNW,292,4.0,-999.0,61,-99.99,,,0.01,weatherlink.com 1.10,2013-03-29 21:32:00,
2013-03-29 17:47:00,50.1,38.0,29.93,NW,313,3.0,-999.0,63,-99.99,,,0.01,weatherlink.com 1.10,2013-03-29 21:47:00,
2013-03-29 18:02:00,50.6,38.0,29.93,NNW,338,0.0,-999.0,62,-99.99,,,0.01,weatherlink.com 1.10,2013-03-29 22:02:00,
2013-03-29 18:17:00,51.0,37.0,29.94,NW,325,2.0,-999.0,60,-99.99,,,0.01,weatherlink.com 1.10,2013-03-29 22:17:00,
2013-03-29 18:33:00,51.2,38.0,29.94,NW,325,0.0,-999.0,60,-99.99,,,0.01,weatherlink.com 1.10,2013-03-29 22:33:00,
2013-03-29 18:48:00,51.0,36.0,29.94,NW,325,0.0,-999.0,58,-99.99,,,0.01,weatherlink.com 1.10,2013-03-29 22:48:00,
2013-03-29 19:03:00,50.7,37.0,29.94,NW,325,0.0,-999.0,59,-99.99,,,0.01,weatherlink.com 1.10,2013-03-29 23:03:00,
2013-03-29 19:18:00,50.6,37.0,29.94,WNW,302,0.0,-999.0,59,-99.99,,,0.01,weatherlink.com 1.10,2013-03-29 23:18:00,
2013-03-29 19:33:00,50.0,36.0,29.94,WNW,302,0.0,-999.0,60,-99.99,,,0.01,weatherlink.com 1.10,2013-03-29 23:33:00,
2013-03-29 19:48:00,49.4,37.0,29.95,WNW,302,0.0,-999.0,63,-99.99,,,0.01,weatherlink.com 1.10,2013-03-29 23:48:00,
2013-03-29 20:03:00,48.8,37.0,29.95,WNW,302,0.0,-999.0,64,-99.99,,,0.01,weatherlink.com 1.10,2013-03-30 00:03:00,
2013-03-29 20:18:00,48.2,37.0,29.96,NE,46,0.0,-999.0,65,-99.99,,,0.01,weatherlink.com 1.10,2013-03-30 00:18:00,
2013-03-29 20:33:00,48.6,35.0,29.96,North,350,0.0,-999.0,59,-99.99,,,0.01,weatherlink.com 1.10,2013-03-30 00:33:00,
2013-03-29 20:48:00,48.8,34.0,29.97,NNW,340,0.0,-999.0,58,-99.99,,,0.01,weatherlink.com 1.10,2013-03-30 00:48:00,
2013-03-29 21:03:00,48.4,34.0,29.97,NW,326,0.0,-999.0,58,-99.99,,,0.01,weatherlink.com 1.10,2013-03-30 01:03:00,
2013-03-29 21:18:00,48.1,34.0,29.98,NNW,334,5.0,-999.0,58,-99.99,,,0.01,weatherlink.com 1.10,2013-03-30 01:18:00,
2013-03-29 21:33:00,47.7,34.0,29.98,NNW,338,2.0,-999.0,59,-99.99,,,0.01,weatherlink.com 1.10,2013-03-30 01:33:00,
2013-03-29 21:48:00,47.2,34.0,29.98,NNW,346,3.0,-999.0,61,-99.99,,,0.01,weatherlink.com 1.10,2013-03-30 01:48:00,
2013-03-29 22:03:00,46.8,34.0,29.98,NW,323,0.0,-999.0,62,-99.99,,,0.01,weatherlink.com 1.10,2013-03-30 02:03:00,
2013-03-29 22:18:00,46.5,34.0,29.98,NW,325,0.0,-999.0,63,-99.99,,,0.01,weatherlink.com 1.10,2013-03-30 02:18:00,
2013-03-29 22:33:00,46.2,35.0,29.98,NW,325,0.0,-999.0,64,-99.99,,,0.01,weatherlink.com 1.10,2013-03-30 02:33:00,
2013-03-29 22:48:00,46.0,34.0,29.98,NW,310,1.0,-999.0,64,-99.99,,,0.01,weatherlink.com 1.10,2013-03-30 02:48:00,
2013-03-29 23:03:00,45.8,34.0,29.98,NW,317,2.0,-999.0,64,-99.99,,,0.01,weatherlink.com 1.10,2013-03-30 03:03:00,
2013-03-29 23:18:00,45.7,34.0,29.98,NW,315,0.0,-999.0,65,-99.99,,,0.01,weatherlink.com 1.10,2013-03-30 03:18:00,
2013-03-29 23:33:00,45.6,34.0,29.98,West,279,1.0,-999.0,65,-99.99,,,0.01,weatherlink.com 1.10,2013-03-30 03:33:00,
2013-03-29 23:48:00,45.4,35.0,29.98,NNW,333,5.0,-999.0,66,-99.99,,,0.01,weatherlink.com 1.10,2013-03-30 03:48:00,